createdAt,value
2017-09-26T00:02:14.569Z,11.60
2017-09-26T00:04:42.363Z,12.30
2017-09-26T00:07:10.674Z,12.50
2017-09-26T00:09:38.565Z,12.90
2017-09-26T00:12:06.204Z,11.98
2017-09-26T00:14:33.791Z,13.98
2017-09-26T00:17:01.328Z,13.68
2017-09-26T00:19:28.921Z,13.00
2017-09-26T00:21:56.478Z,14.48
2017-09-26T00:24:24.071Z,14.20
2017-09-26T00:26:52.387Z,15.05
2017-09-26T00:29:21.450Z,14.98
2017-09-26T00:31:49.771Z,14.55
2017-09-26T00:34:17.758Z,14.23
2017-09-26T00:36:45.321Z,14.15
2017-09-26T00:39:12.873Z,14.80
2017-09-26T00:41:40.717Z,15.45
2017-09-26T00:44:08.262Z,15.60
2017-09-26T00:46:35.814Z,13.82
2017-09-26T00:49:03.741Z,12.93
2017-09-26T00:51:31.292Z,13.38
2017-09-26T00:53:58.846Z,13.15
2017-09-26T00:56:26.432Z,14.00
2017-09-26T00:58:53.977Z,15.45
2017-09-26T01:01:22.486Z,14.27
2017-09-26T01:03:51.414Z,14.20
2017-09-26T01:06:39.888Z,13.10
2017-09-26T01:09:07.430Z,14.20
2017-09-26T01:11:35.083Z,13.88
2017-09-26T01:14:02.984Z,13.45
2017-09-26T01:16:30.559Z,14.73
2017-09-26T01:18:58.105Z,15.55
2017-09-26T01:21:25.851Z,14.68
2017-09-26T01:23:53.392Z,14.50
2017-09-26T01:26:20.985Z,14.80
2017-09-26T01:28:48.842Z,14.85
2017-09-26T01:31:16.394Z,14.82
2017-09-26T01:33:43.939Z,14.55
2017-09-26T01:36:15.421Z,14.13
2017-09-26T01:38:42.960Z,16.23
2017-09-26T01:41:20.279Z,15.57
2017-09-26T01:43:47.824Z,16.02
2017-09-26T01:46:15.802Z,16.65
2017-09-26T01:48:43.347Z,16.08
2017-09-26T01:51:10.893Z,15.35
2017-09-26T01:53:40.052Z,15.68
2017-09-26T01:56:23.405Z,15.30
2017-09-26T01:58:51.753Z,15.98
2017-09-26T02:01:20.303Z,15.15
2017-09-26T02:03:47.841Z,16.02
2017-09-26T02:06:15.397Z,15.65
2017-09-26T02:08:48.216Z,15.85
2017-09-26T02:11:16.028Z,16.05
2017-09-26T02:13:44.342Z,16.58
2017-09-26T02:16:11.915Z,16.62
2017-09-26T02:18:39.458Z,14.50
2017-09-26T02:21:07.448Z,14.77
2017-09-26T02:23:34.992Z,14.77
2017-09-26T02:26:02.539Z,12.80
2017-09-26T02:28:30.263Z,12.85
2017-09-26T02:30:57.836Z,12.20
2017-09-26T02:33:26.335Z,13.35
2017-09-26T02:35:53.876Z,11.95
2017-09-26T02:38:22.191Z,12.55
2017-09-26T02:40:49.773Z,17.15
2017-09-26T02:43:17.317Z,17.55
2017-09-26T02:45:44.961Z,12.20
2017-09-26T02:48:12.502Z,10.40
2017-09-26T02:50:40.846Z,9.75
2017-09-26T02:53:08.380Z,9.85
2017-09-26T02:55:35.953Z,8.30
2017-09-26T02:58:03.496Z,10.10
2017-09-26T03:00:31.245Z,11.85
2017-09-26T03:02:58.788Z,11.20
2017-09-26T03:05:26.333Z,10.95
2017-09-26T03:07:55.485Z,10.93
2017-09-26T03:10:23.293Z,14.07
2017-09-26T03:12:51.610Z,16.67
2017-09-26T03:15:19.372Z,12.20
2017-09-26T03:17:46.949Z,11.75
2017-09-26T03:20:14.486Z,13.48
2017-09-26T03:22:42.070Z,15.07
2017-09-26T03:25:09.613Z,16.42
2017-09-26T03:27:37.510Z,16.80
2017-09-26T03:30:05.061Z,20.15
2017-09-26T03:32:32.611Z,20.42
2017-09-26T03:35:00.383Z,20.95
2017-09-26T03:37:27.969Z,20.88
2017-09-26T03:39:55.504Z,16.85
2017-09-26T03:42:23.077Z,17.90
2017-09-26T03:44:50.620Z,19.58
2017-09-26T03:47:18.202Z,17.30
2017-09-26T03:49:45.744Z,13.32
2017-09-26T03:52:13.513Z,13.95
2017-09-26T03:54:41.052Z,12.20
2017-09-26T03:57:08.638Z,13.88
2017-09-26T03:59:36.180Z,17.23
2017-09-26T04:02:08.674Z,17.62
2017-09-26T04:04:36.215Z,18.08
2017-09-26T04:07:04.401Z,17.37
2017-09-26T04:09:31.949Z,18.55
2017-09-26T04:12:00.193Z,18.83
2017-09-26T04:14:28.708Z,18.95
2017-09-26T04:16:56.248Z,19.67
2017-09-26T04:19:23.884Z,19.85
2017-09-26T04:21:52.184Z,18.45
2017-09-26T04:24:19.762Z,19.58
2017-09-26T04:26:47.298Z,19.55
2017-09-26T04:29:14.876Z,19.60
2017-09-26T04:31:42.413Z,19.85
2017-09-26T04:34:10.757Z,19.70
2017-09-26T04:36:38.304Z,19.85
2017-09-26T04:39:05.937Z,18.65
2017-09-26T04:41:33.820Z,19.77
2017-09-26T04:44:01.360Z,19.65
2017-09-26T04:46:28.904Z,20.00
2017-09-26T04:48:56.565Z,16.95
2017-09-26T04:51:24.871Z,18.85
2017-09-26T04:53:56.053Z,18.58
2017-09-26T04:56:23.598Z,32.97
2017-09-26T04:58:51.197Z,94.32
2017-09-26T05:01:19.505Z,29.83
2017-09-26T05:03:47.100Z,33.33
2017-09-26T05:06:14.652Z,27.70
2017-09-26T05:08:42.195Z,22.08
2017-09-26T05:11:10.125Z,19.90
2017-09-26T05:13:38.665Z,20.40
2017-09-26T05:16:06.218Z,20.35
2017-09-26T05:18:33.930Z,21.25
2017-09-26T05:21:02.247Z,19.30
2017-09-26T05:23:30.241Z,19.20
2017-09-26T05:25:57.790Z,20.77
2017-09-26T05:28:26.688Z,21.98
2017-09-26T05:30:54.482Z,22.23
2017-09-26T05:33:22.021Z,21.52
2017-09-26T05:35:49.608Z,20.35
2017-09-26T05:38:17.965Z,21.37
2017-09-26T05:40:45.515Z,18.92
2017-09-26T05:43:13.451Z,17.50
2017-09-26T05:45:40.987Z,17.62
2017-09-26T05:48:09.305Z,16.70
2017-09-26T05:50:38.413Z,17.92
2017-09-26T05:53:09.600Z,16.70
2017-09-26T05:55:37.944Z,16.75
2017-09-26T05:58:05.485Z,17.12
2017-09-26T06:00:33.509Z,16.30
2017-09-26T06:03:01.817Z,16.27
2017-09-26T06:05:29.366Z,16.12
2017-09-26T06:07:57.138Z,16.90
2017-09-26T06:10:24.992Z,18.85
2017-09-26T06:12:52.528Z,19.95
2017-09-26T06:15:20.144Z,19.85
2017-09-26T06:17:47.689Z,18.73
2017-09-26T06:20:15.228Z,19.50
2017-09-26T06:22:43.724Z,19.37
2017-09-26T06:25:11.812Z,20.80
2017-09-26T06:27:39.360Z,20.75
2017-09-26T06:30:06.969Z,21.52
2017-09-26T06:32:34.563Z,19.75
2017-09-26T06:35:02.105Z,18.90
2017-09-26T06:37:30.757Z,21.35
2017-09-26T06:39:58.329Z,19.20
2017-09-26T06:42:25.877Z,19.83
2017-09-26T06:44:53.630Z,19.73
2017-09-26T06:47:21.164Z,21.35
2017-09-26T06:49:48.756Z,20.17
2017-09-26T06:52:16.303Z,19.98
2017-09-26T06:54:43.908Z,19.70
2017-09-26T06:57:11.482Z,20.20
2017-09-26T06:59:39.885Z,20.62
2017-09-26T07:02:07.438Z,18.12
2017-09-26T07:04:35.021Z,19.77
2017-09-26T07:07:02.585Z,20.58
2017-09-26T07:09:30.165Z,19.92
2017-09-26T07:11:57.705Z,19.90
2017-09-26T07:14:25.710Z,19.42
2017-09-26T07:16:53.253Z,20.77
2017-09-26T07:19:20.804Z,18.48
2017-09-26T07:21:48.450Z,19.20
2017-09-26T07:24:16.076Z,18.75
2017-09-26T07:26:45.949Z,19.50
2017-09-26T07:29:13.720Z,20.50
2017-09-26T07:31:41.257Z,19.90
2017-09-26T07:34:11.597Z,19.58
2017-09-26T07:36:39.146Z,19.67
2017-09-26T07:39:07.461Z,19.83
2017-09-26T07:41:35.053Z,21.20
2017-09-26T07:44:02.623Z,20.42
2017-09-26T07:46:30.269Z,19.30
2017-09-26T07:48:58.581Z,20.00
2017-09-26T07:51:26.160Z,17.83
2017-09-26T07:53:53.743Z,18.23
2017-09-26T07:56:21.505Z,18.65
2017-09-26T07:58:49.558Z,20.80
2017-09-26T08:01:17.375Z,18.70
2017-09-26T08:03:45.233Z,18.58
2017-09-26T08:06:15.658Z,19.73
2017-09-26T08:08:43.629Z,19.20
2017-09-26T08:11:12.382Z,18.65
2017-09-26T08:13:39.960Z,18.70
2017-09-26T08:16:08.832Z,18.98
2017-09-26T08:18:36.368Z,18.75
2017-09-26T08:21:04.683Z,18.12
2017-09-26T08:23:32.458Z,17.92
2017-09-26T08:26:00.053Z,17.45
2017-09-26T08:28:27.618Z,17.05
2017-09-26T08:30:55.157Z,18.00
2017-09-26T08:33:23.534Z,16.92
2017-09-26T08:35:51.081Z,16.92
2017-09-26T08:38:19.453Z,16.73
2017-09-26T08:40:47.300Z,15.57
2017-09-26T08:43:14.897Z,15.32
2017-09-26T08:45:43.248Z,16.73
2017-09-26T08:48:11.110Z,16.35
2017-09-26T08:50:38.665Z,16.27
2017-09-26T08:53:06.213Z,16.37
2017-09-26T08:55:35.007Z,14.90
2017-09-26T08:58:03.027Z,16.08
2017-09-26T09:00:30.942Z,15.88
2017-09-26T09:02:58.488Z,15.75
2017-09-26T09:05:26.048Z,15.27
2017-09-26T09:07:53.629Z,16.10
2017-09-26T09:10:21.492Z,14.00
2017-09-26T09:12:49.517Z,13.85
2017-09-26T09:15:17.144Z,14.00
2017-09-26T09:17:44.874Z,12.75
2017-09-26T09:20:12.448Z,12.65
2017-09-26T09:22:39.991Z,14.43
2017-09-26T09:25:07.573Z,14.60
2017-09-26T09:27:35.157Z,13.95
2017-09-26T09:30:03.940Z,14.93
2017-09-26T09:32:31.848Z,13.75
2017-09-26T09:34:59.390Z,14.30
2017-09-26T09:37:27.705Z,15.50
2017-09-26T09:39:55.443Z,14.63
2017-09-26T09:42:23.361Z,14.48
2017-09-26T09:44:50.918Z,11.70
2017-09-26T09:47:18.461Z,12.90
2017-09-26T09:49:46.465Z,11.48
2017-09-26T09:52:14.013Z,11.15
2017-09-26T09:54:41.566Z,10.63
2017-09-26T09:57:10.462Z,10.35
2017-09-26T09:59:38.016Z,10.60
2017-09-26T10:02:05.961Z,9.70
2017-09-26T10:04:34.382Z,10.30
2017-09-26T10:07:01.930Z,9.68
2017-09-26T10:09:29.865Z,9.90
2017-09-26T10:11:57.701Z,9.60
2017-09-26T10:14:26.011Z,9.20
2017-09-26T10:16:54.132Z,9.50
2017-09-26T10:19:21.674Z,9.55
2017-09-26T10:21:49.223Z,9.63
2017-09-26T10:24:16.873Z,8.60
2017-09-26T10:26:49.642Z,9.35
2017-09-26T10:29:17.236Z,8.07
2017-09-26T10:31:44.788Z,9.60
2017-09-26T10:34:12.383Z,9.05
2017-09-26T10:36:39.930Z,8.70
2017-09-26T10:39:08.091Z,9.32
2017-09-26T10:41:35.638Z,8.38
2017-09-26T10:44:03.176Z,9.67
2017-09-26T10:46:30.769Z,8.63
2017-09-26T10:48:58.321Z,9.40
2017-09-26T10:51:26.197Z,8.40
2017-09-26T10:53:53.739Z,8.50
2017-09-26T10:56:21.298Z,7.82
2017-09-26T10:58:49.289Z,8.48
2017-09-26T11:01:16.833Z,8.30
2017-09-26T11:03:44.380Z,9.17
2017-09-26T11:06:11.965Z,8.27
2017-09-26T11:08:39.551Z,8.47
2017-09-26T11:11:07.089Z,8.50
2017-09-26T11:13:37.709Z,8.43
2017-09-26T11:16:05.259Z,8.57
2017-09-26T11:18:32.806Z,8.43
2017-09-26T11:21:01.013Z,8.93
2017-09-26T11:23:28.565Z,8.37
2017-09-26T11:25:56.112Z,8.40
2017-09-26T11:28:25.023Z,8.77
2017-09-26T11:30:52.597Z,9.07
2017-09-26T11:33:20.136Z,8.63
2017-09-26T11:35:47.717Z,8.70
2017-09-26T11:38:15.285Z,8.63
2017-09-26T11:40:42.869Z,8.67
2017-09-26T11:43:11.173Z,8.80
2017-09-26T11:45:39.093Z,8.30
2017-09-26T11:48:06.633Z,8.07
2017-09-26T11:50:34.769Z,8.80
2017-09-26T11:53:02.668Z,8.57
2017-09-26T11:55:31.121Z,8.00
2017-09-26T11:57:58.663Z,7.80
2017-09-26T12:00:27.563Z,7.40
2017-09-26T12:02:55.504Z,7.93
2017-09-26T12:05:23.806Z,8.10
2017-09-26T12:07:51.349Z,7.80
2017-09-26T12:10:19.690Z,7.13
2017-09-26T12:12:52.881Z,7.00
2017-09-26T12:15:20.476Z,7.03
2017-09-26T12:17:48.786Z,7.17
2017-09-26T12:20:16.320Z,5.80
2017-09-26T12:22:44.815Z,7.10
2017-09-26T12:25:12.605Z,6.60
2017-09-26T12:27:40.697Z,7.30
2017-09-26T12:30:08.249Z,7.00
2017-09-26T12:32:35.786Z,6.80
2017-09-26T12:35:06.248Z,6.53
2017-09-26T12:37:33.788Z,8.07
2017-09-26T12:40:01.344Z,7.70
2017-09-26T12:42:32.692Z,7.30
2017-09-26T12:45:00.229Z,7.20
2017-09-26T12:47:28.182Z,7.40
2017-09-26T12:49:56.510Z,7.83
2017-09-26T12:52:24.064Z,7.73
2017-09-26T12:54:51.654Z,8.30
2017-09-26T12:57:19.612Z,8.43
2017-09-26T12:59:47.147Z,8.70
2017-09-26T13:02:14.692Z,8.20
2017-09-26T13:04:42.533Z,7.97
2017-09-26T13:07:10.840Z,8.20
2017-09-26T13:09:39.705Z,8.53
2017-09-26T13:12:08.012Z,8.40
2017-09-26T13:14:35.565Z,8.60
2017-09-26T13:17:03.464Z,8.33
2017-09-26T13:19:31.002Z,8.93
2017-09-26T13:21:58.552Z,8.30
2017-09-26T13:24:26.185Z,8.10
2017-09-26T13:26:59.666Z,7.83
2017-09-26T13:29:27.815Z,9.43
2017-09-26T13:31:55.367Z,8.70
2017-09-26T13:34:22.905Z,8.53
2017-09-26T13:36:50.552Z,7.97
2017-09-26T13:39:18.856Z,8.17
2017-09-26T13:41:46.853Z,8.30
2017-09-26T13:44:14.389Z,8.40
2017-09-26T13:46:41.921Z,8.00
2017-09-26T13:49:10.266Z,7.77
2017-09-26T13:51:37.812Z,7.20
2017-09-26T13:54:05.402Z,6.73
2017-09-26T13:56:32.941Z,7.00
2017-09-26T13:59:00.869Z,6.93
2017-09-26T14:01:28.414Z,6.87
2017-09-26T14:03:56.027Z,6.20
2017-09-26T14:06:23.624Z,7.15
2017-09-26T14:08:51.225Z,6.62
2017-09-26T14:11:18.861Z,5.78
2017-09-26T14:13:46.500Z,6.57
2017-09-26T14:16:14.808Z,6.55
2017-09-26T14:18:42.541Z,6.20
2017-09-26T14:21:10.888Z,5.97
2017-09-26T14:23:38.442Z,6.45
2017-09-26T14:26:06.214Z,6.43
2017-09-26T14:28:33.751Z,6.72
2017-09-26T14:31:01.333Z,6.90
2017-09-26T14:33:28.890Z,7.43
2017-09-26T14:35:56.637Z,7.60
2017-09-26T14:38:24.174Z,8.35
2017-09-26T14:40:51.917Z,8.07
2017-09-26T14:43:20.242Z,8.80
2017-09-26T14:45:48.216Z,7.93
2017-09-26T14:48:15.766Z,8.70
2017-09-26T14:50:43.314Z,8.50
2017-09-26T14:53:11.009Z,8.15
2017-09-26T14:55:38.558Z,8.30
2017-09-26T14:58:08.590Z,8.45
2017-09-26T15:00:36.136Z,6.30
2017-09-26T15:03:06.675Z,6.75
2017-09-26T15:05:34.218Z,6.47
2017-09-26T15:08:01.800Z,6.72
2017-09-26T15:10:31.131Z,7.65
2017-09-26T15:12:59.437Z,8.00
2017-09-26T15:15:27.017Z,8.00
2017-09-26T15:17:54.893Z,8.85
2017-09-26T15:20:22.436Z,7.45
2017-09-26T15:22:49.969Z,8.70
2017-09-26T15:25:19.937Z,7.85
2017-09-26T15:27:47.648Z,7.50
2017-09-26T15:30:15.946Z,6.70
2017-09-26T15:32:43.624Z,7.50
2017-09-26T15:35:11.159Z,7.10
2017-09-26T15:37:38.741Z,7.25
2017-09-26T15:40:06.278Z,6.60
2017-09-26T15:42:33.877Z,6.35
2017-09-26T15:45:01.423Z,6.32
2017-09-26T15:47:28.959Z,6.40
2017-09-26T15:49:56.596Z,6.37
2017-09-26T15:52:24.144Z,5.97
2017-09-26T15:54:51.732Z,5.55
2017-09-26T15:57:20.038Z,6.10
2017-09-26T15:59:47.586Z,5.75
2017-09-26T16:02:15.750Z,6.60
2017-09-26T16:04:43.353Z,6.65
2017-09-26T16:07:11.074Z,5.37
2017-09-26T16:09:38.617Z,4.97
2017-09-26T16:12:07.076Z,5.87
2017-09-26T16:14:34.611Z,5.50
2017-09-26T16:17:02.149Z,5.28
2017-09-26T16:19:29.764Z,5.75
2017-09-26T16:21:57.302Z,6.12
2017-09-26T16:24:26.160Z,6.28
2017-09-26T16:26:53.700Z,6.12
2017-09-26T16:29:22.485Z,6.00
2017-09-26T16:31:50.835Z,5.93
2017-09-26T16:34:18.412Z,6.05
2017-09-26T16:36:47.036Z,6.00
2017-09-26T16:39:14.577Z,5.68
2017-09-26T16:41:42.155Z,5.93
2017-09-26T16:44:09.930Z,6.00
2017-09-26T16:46:37.564Z,5.80
2017-09-26T16:49:05.396Z,6.20
2017-09-26T16:51:33.157Z,5.70
2017-09-26T16:54:00.761Z,5.65
2017-09-26T16:56:28.309Z,5.45
2017-09-26T16:58:56.657Z,4.90
2017-09-26T17:01:24.809Z,5.40
2017-09-26T17:03:52.561Z,5.85
2017-09-26T17:06:20.306Z,6.85
2017-09-26T17:08:47.980Z,7.00
2017-09-26T17:11:15.868Z,6.78
2017-09-26T17:13:43.502Z,6.30
2017-09-26T17:16:11.043Z,7.00
2017-09-26T17:18:41.214Z,6.87
2017-09-26T17:21:08.748Z,5.40
2017-09-26T17:23:37.050Z,6.60
2017-09-26T17:26:04.624Z,7.78
2017-09-26T17:28:32.420Z,8.73
2017-09-26T17:31:00.757Z,7.35
2017-09-26T17:33:28.300Z,7.53
2017-09-26T17:35:55.930Z,7.12
2017-09-26T17:38:23.473Z,6.85
2017-09-26T17:40:52.193Z,7.50
2017-09-26T17:43:19.724Z,7.32
2017-09-26T17:45:48.029Z,6.18
2017-09-26T17:48:15.726Z,5.82
2017-09-26T17:50:43.253Z,6.35
2017-09-26T17:53:10.796Z,5.78
2017-09-26T17:55:38.369Z,6.40
2017-09-26T17:58:06.241Z,6.37
2017-09-26T18:00:33.786Z,6.32
2017-09-26T18:03:01.333Z,6.57
2017-09-26T18:05:28.920Z,6.72
2017-09-26T18:07:56.513Z,6.72
2017-09-26T18:10:24.040Z,6.00
2017-09-26T18:12:52.045Z,6.85
2017-09-26T18:15:19.589Z,6.65
2017-09-26T18:17:47.145Z,5.97
2017-09-26T18:20:14.784Z,5.90
2017-09-26T18:22:42.353Z,6.35
2017-09-26T18:25:09.884Z,6.37
2017-09-26T18:27:38.729Z,6.30
2017-09-26T18:30:06.265Z,5.40
2017-09-26T18:32:33.846Z,6.18
2017-09-26T18:35:01.378Z,6.43
2017-09-26T18:37:28.957Z,6.60
2017-09-26T18:39:56.497Z,5.85
2017-09-26T18:42:24.084Z,6.15
2017-09-26T18:44:51.615Z,5.68
2017-09-26T18:47:19.381Z,6.57
2017-09-26T18:49:46.923Z,5.60
2017-09-26T18:52:15.434Z,6.50
2017-09-26T18:54:43.040Z,6.20
2017-09-26T18:57:10.576Z,6.00
2017-09-26T18:59:38.177Z,6.00
2017-09-26T19:02:06.484Z,6.62
2017-09-26T19:04:34.467Z,5.62
2017-09-26T19:07:02.002Z,5.68
2017-09-26T19:09:32.378Z,5.80
2017-09-26T19:12:00.046Z,5.20
2017-09-26T19:14:27.573Z,6.50
2017-09-26T19:16:55.155Z,6.50
2017-09-26T19:19:22.725Z,6.10
2017-09-26T19:21:50.272Z,6.28
2017-09-26T19:24:18.446Z,6.93
2017-09-26T19:26:46.078Z,5.75
2017-09-26T19:29:13.613Z,6.50
2017-09-26T19:31:41.282Z,6.82
2017-09-26T19:34:09.629Z,7.35
2017-09-26T19:36:37.165Z,7.50
2017-09-26T19:39:06.089Z,7.03
2017-09-26T19:41:33.680Z,7.57
2017-09-26T19:44:01.234Z,7.80
2017-09-26T19:46:29.540Z,8.32
2017-09-26T19:48:57.114Z,8.48
2017-09-26T19:51:24.680Z,8.55
2017-09-26T19:53:52.253Z,8.30
2017-09-26T19:56:19.785Z,9.00
2017-09-26T19:58:48.678Z,8.07
2017-09-26T20:01:16.207Z,8.00
2017-09-26T20:03:43.795Z,7.87
2017-09-26T20:06:11.332Z,8.65
2017-09-26T20:08:38.906Z,7.80
2017-09-26T20:11:06.436Z,7.30
2017-09-26T20:13:35.685Z,6.85
2017-09-26T20:16:03.212Z,7.03
2017-09-26T20:18:30.745Z,7.57
2017-09-26T20:20:59.089Z,8.50
2017-09-26T20:23:26.683Z,8.10
2017-09-26T20:25:54.261Z,9.18
2017-09-26T20:28:26.721Z,8.18
2017-09-26T20:30:55.026Z,7.40
2017-09-26T20:33:22.665Z,8.02
2017-09-26T20:35:50.964Z,8.30
2017-09-26T20:38:18.540Z,9.18
2017-09-26T20:40:46.529Z,8.57
2017-09-26T20:43:14.073Z,9.00
2017-09-26T20:45:41.612Z,9.35
2017-09-26T20:48:09.261Z,9.38
2017-09-26T20:50:37.564Z,9.00
2017-09-26T20:53:05.136Z,8.43
2017-09-26T20:55:32.668Z,7.20
2017-09-26T20:58:00.240Z,7.35
2017-09-26T21:00:27.821Z,8.20
2017-09-26T21:02:55.367Z,7.15
2017-09-26T21:05:23.357Z,6.75
2017-09-26T21:07:50.889Z,7.40
2017-09-26T21:10:18.433Z,6.35
2017-09-26T21:12:46.009Z,7.20
2017-09-26T21:15:16.053Z,6.07
2017-09-26T21:17:43.585Z,6.22
2017-09-26T21:20:11.297Z,5.97
2017-09-26T21:22:38.851Z,6.50
2017-09-26T21:25:06.798Z,6.85
2017-09-26T21:27:34.333Z,6.78
2017-09-26T21:30:03.506Z,6.57
2017-09-26T21:32:31.848Z,6.40
2017-09-26T21:34:59.418Z,6.47
2017-09-26T21:37:26.962Z,8.30
2017-09-26T21:39:54.532Z,9.07
2017-09-26T21:42:22.396Z,8.80
2017-09-26T21:44:49.937Z,9.30
2017-09-26T21:47:17.476Z,9.50
2017-09-26T21:49:45.432Z,8.75
2017-09-26T21:52:13.735Z,9.40
2017-09-26T21:54:41.280Z,9.18
2017-09-26T21:57:08.857Z,9.60
2017-09-26T21:59:36.396Z,10.27
2017-09-26T22:02:03.996Z,10.25
2017-09-26T22:04:31.529Z,7.90
2017-09-26T22:06:59.065Z,7.57
2017-09-26T22:09:27.409Z,7.30
2017-09-26T22:11:55.362Z,7.37
2017-09-26T22:14:22.897Z,6.95
2017-09-26T22:16:50.424Z,6.87
2017-09-26T22:19:18.764Z,7.28
2017-09-26T22:21:48.796Z,6.03
2017-09-26T22:24:16.337Z,6.50
2017-09-26T22:26:44.082Z,6.97
2017-09-26T22:29:11.619Z,7.35
2017-09-26T22:31:39.919Z,7.10
2017-09-26T22:34:07.544Z,6.93
2017-09-26T22:36:36.292Z,7.30
2017-09-26T22:39:03.913Z,7.80
2017-09-26T22:41:31.450Z,8.18
2017-09-26T22:43:59.805Z,8.27
2017-09-26T22:46:27.350Z,8.10
2017-09-26T22:48:54.981Z,7.82
2017-09-26T22:51:22.525Z,8.70
2017-09-26T22:53:50.261Z,9.20
2017-09-26T22:56:17.805Z,8.15
2017-09-26T22:58:45.877Z,8.88
2017-09-26T23:01:13.413Z,9.07
2017-09-26T23:03:40.961Z,9.43
2017-09-26T23:06:08.562Z,9.00
2017-09-26T23:08:41.439Z,8.20
2017-09-26T23:11:08.989Z,8.82
2017-09-26T23:13:36.784Z,9.18
2017-09-26T23:16:04.451Z,9.63
2017-09-26T23:18:32.770Z,8.90
2017-09-26T23:21:00.353Z,9.25
2017-09-26T23:23:27.909Z,9.65
2017-09-26T23:25:55.897Z,8.98
2017-09-26T23:28:23.446Z,9.60
2017-09-26T23:30:51.028Z,10.45
2017-09-26T23:33:18.587Z,14.55
2017-09-26T23:35:46.965Z,13.88
2017-09-26T23:38:14.521Z,13.70
2017-09-26T23:40:42.265Z,13.38
2017-09-26T23:43:09.822Z,13.73
2017-09-26T23:45:38.525Z,14.27
2017-09-26T23:48:06.082Z,15.65
2017-09-26T23:50:33.642Z,12.73
2017-09-26T23:53:01.231Z,13.60
2017-09-26T23:55:29.585Z,13.40
2017-09-26T23:57:57.135Z,15.57
